Medvezh'ya Balka, Ukraine

1:19 AM EEST on June 23, 2018 (GMT +0300)
Червонопілля | | Change Station

Elev 502 ft 47.96 °N, 32.17 °E | Updated 3 minutes ago

Clear
Clear
72.1 °F
Feels Like 74 °F
N
2
Wind Variable Wind from SSW
Gusts 5.0 mph

Today
High -- | Low -- °F
--% Chance of Precip.
Yesterday
High -- | Low -- °F
Precip. -- in
Pressure 29.74 in
Visibility -9999.0 miles
Clouds
Heat Index 74 °F
Dew Point 63 °F
Humidity 74%
Rainfall 0.00 in
Snow Depth Not available.
4:52 AM 8:53 PM
Waxing Gibbous, 75% visible
METAR UKDR 222200Z 33001MPS CAVOK 21/15 Q1007 R36/09//70 TEMPO 24010G15MPS 2100 -TSRAGR SQ BKN011 BKN020CB
Pressure 29.74 in
Visibility -9999.0 miles
Clouds
Heat Index 74 °F
Dew Point 63 °F
Humidity 74%
Rainfall 0.00 in
Snow Depth Not available.
4:52 AM 8:53 PM
Waxing Gibbous, 75% visible
METAR UKDR 222200Z 33001MPS CAVOK 21/15 Q1007 R36/09//70 TEMPO 24010G15MPS 2100 -TSRAGR SQ BKN011 BKN020CB

Get Severe Weather Alerts

Thanks for signing up!

Be on the lookout for a verification email in your inbox.

You'll start receiving the daily forecast at 6 AM.

×

10-Day Weather Forecast

×

Almanac

Astronomy

Jun. 23, 2018 Rise Set
Actual Time
Civil Twilight
Nautical Twilight
Astronomical Twilight
Moon
Length of Visible Light
Length of Day
Tomorrow will be .
, % of the Moon is Illuminated

Today's Extremes

Country Highs Country Lows

Community

WunderPhotos

Category 6

Welcome to Category 6. This is the collective home for Weather Underground's featured writeups by Dr. Jeff Masters (right), Bob Henson (left), Chris Burt, and other regular contributors.

Nearby

Air Quality

  Air Quality AQ Index Pollutant
Not available.

Snow Depth

Station Depth Elevation

Earthquake Activity

City Distance Mag. Time & Date
Minimum magnitude displayed is 2.5.

Coastal Water Temperatures

Place Temperature

Stations

Nearby Weather Stations

Station Location Temp. Windchill Dew Point Humidity Wind Precip. Elev Updated Type